createdAt,value
2017-12-20T00:01:30.512Z,38.57
2017-12-20T00:03:57.947Z,38.07
2017-12-20T00:06:26.169Z,34.90
2017-12-20T00:08:53.620Z,39.05
2017-12-20T00:11:21.067Z,35.28
2017-12-20T00:13:49.273Z,38.25
2017-12-20T00:16:16.715Z,43.20
2017-12-20T00:18:44.935Z,39.65
2017-12-20T00:21:12.380Z,42.88
2017-12-20T00:23:40.593Z,42.33
2017-12-20T00:26:08.056Z,38.92
2017-12-20T00:28:35.498Z,42.40
2017-12-20T00:31:03.696Z,37.40
2017-12-20T00:33:31.150Z,39.53
2017-12-20T00:35:59.371Z,40.00
2017-12-20T00:38:26.813Z,36.63
2017-12-20T00:40:55.018Z,39.37
2017-12-20T00:43:22.478Z,42.07
2017-12-20T00:45:49.929Z,44.30
2017-12-20T00:48:18.144Z,31.33
2017-12-20T00:50:45.581Z,39.03
2017-12-20T00:53:13.802Z,37.55
2017-12-20T00:55:41.254Z,44.80
2017-12-20T00:58:08.714Z,37.38
2017-12-20T01:00:36.908Z,43.63
2017-12-20T01:03:04.372Z,45.88
2017-12-20T01:05:32.592Z,49.20
2017-12-20T01:08:00.050Z,47.15
2017-12-20T01:10:27.488Z,46.37
2017-12-20T01:12:55.704Z,52.47
2017-12-20T01:15:23.159Z,56.58
2017-12-20T01:17:50.605Z,52.55
2017-12-20T01:20:18.818Z,52.75
2017-12-20T01:22:46.263Z,42.65
2017-12-20T01:25:14.483Z,49.42
2017-12-20T01:27:41.934Z,51.33
2017-12-20T01:30:09.400Z,49.50
2017-12-20T01:32:36.844Z,48.92
2017-12-20T01:35:04.303Z,52.80
2017-12-20T01:37:31.760Z,49.42
2017-12-20T01:39:59.228Z,44.08
2017-12-20T01:42:27.434Z,43.63
2017-12-20T01:44:54.888Z,39.65
2017-12-20T01:47:22.333Z,39.08
2017-12-20T01:49:49.792Z,43.33
2017-12-20T01:52:17.248Z,40.05
2017-12-20T01:54:44.705Z,35.65
2017-12-20T01:57:12.144Z,39.30
2017-12-20T01:59:39.600Z,43.78
2017-12-20T02:02:07.053Z,36.28
2017-12-20T02:04:34.517Z,36.85
2017-12-20T02:07:01.969Z,40.50
2017-12-20T02:09:29.428Z,43.67
2017-12-20T02:11:56.892Z,38.70
2017-12-20T02:14:24.341Z,39.33
2017-12-20T02:16:52.552Z,41.37
2017-12-20T02:19:19.990Z,36.67
2017-12-20T02:21:48.203Z,38.08
2017-12-20T02:24:15.648Z,36.53
2017-12-20T02:26:43.859Z,36.03
2017-12-20T02:29:11.304Z,37.97
2017-12-20T02:31:39.516Z,35.10
2017-12-20T02:34:06.973Z,36.17
2017-12-20T02:36:34.431Z,31.83
2017-12-20T02:39:06.124Z,34.33
2017-12-20T02:41:33.587Z,31.95
2017-12-20T02:44:01.046Z,39.25
2017-12-20T02:46:28.501Z,33.13
2017-12-20T02:48:55.997Z,32.42
2017-12-20T02:51:23.411Z,34.13
2017-12-20T02:53:50.856Z,30.75
2017-12-20T02:56:18.320Z,32.13
2017-12-20T02:58:45.747Z,29.70
2017-12-20T03:01:13.979Z,33.25
2017-12-20T03:03:42.207Z,31.90
2017-12-20T03:06:09.663Z,31.95
2017-12-20T03:08:37.103Z,34.78
2017-12-20T03:11:04.560Z,33.83
2017-12-20T03:13:31.998Z,33.45
2017-12-20T03:16:00.219Z,29.85
2017-12-20T03:18:27.668Z,29.77
2017-12-20T03:20:55.143Z,32.85
2017-12-20T03:23:22.591Z,33.33
2017-12-20T03:25:50.793Z,31.00
2017-12-20T03:28:18.247Z,28.30
2017-12-20T03:30:45.709Z,32.20
2017-12-20T03:33:13.945Z,29.80
2017-12-20T03:35:41.404Z,28.60
2017-12-20T03:38:08.863Z,31.75
2017-12-20T03:40:36.302Z,29.02
2017-12-20T03:43:04.515Z,26.75
2017-12-20T03:45:31.979Z,33.17
2017-12-20T03:47:59.427Z,32.80
2017-12-20T03:50:27.635Z,36.15
2017-12-20T03:52:55.090Z,33.40
2017-12-20T03:55:22.532Z,35.72
2017-12-20T03:57:50.745Z,36.25
2017-12-20T04:00:18.178Z,32.43
2017-12-20T04:02:46.394Z,29.90
2017-12-20T04:05:13.840Z,33.17
2017-12-20T04:07:42.052Z,30.95
2017-12-20T04:10:09.494Z,29.95
2017-12-20T04:12:37.703Z,30.12
2017-12-20T04:15:05.149Z,29.73
2017-12-20T04:17:33.373Z,32.63
2017-12-20T04:20:00.827Z,31.17
2017-12-20T04:22:28.317Z,30.50
2017-12-20T04:24:55.746Z,30.10
2017-12-20T04:27:23.187Z,31.87
2017-12-20T04:29:50.639Z,32.25
2017-12-20T04:32:18.091Z,27.77
2017-12-20T04:34:45.545Z,27.03
2017-12-20T04:37:13.001Z,29.80
2017-12-20T04:39:40.466Z,47.30
2017-12-20T04:42:07.895Z,36.53
2017-12-20T04:44:35.353Z,33.00
2017-12-20T04:47:02.790Z,30.85
2017-12-20T04:49:30.243Z,33.15
2017-12-20T04:51:57.690Z,28.35
2017-12-20T04:54:25.921Z,24.08
2017-12-20T04:56:53.376Z,28.58
2017-12-20T04:59:20.845Z,22.90
2017-12-20T05:01:48.295Z,22.20
2017-12-20T05:04:15.747Z,27.10
2017-12-20T05:06:43.953Z,27.08
2017-12-20T05:09:11.424Z,25.25
2017-12-20T05:11:38.866Z,22.20
2017-12-20T05:14:07.079Z,21.70
2017-12-20T05:16:34.519Z,24.10
2017-12-20T05:19:02.745Z,21.35
2017-12-20T05:21:30.200Z,22.52
2017-12-20T05:23:57.684Z,21.83
2017-12-20T05:26:25.158Z,23.17
2017-12-20T05:28:52.593Z,26.80
2017-12-20T05:31:20.055Z,29.37
2017-12-20T05:33:48.267Z,25.10
2017-12-20T05:36:15.716Z,21.87
2017-12-20T05:38:43.944Z,17.85
2017-12-20T05:41:11.399Z,25.20
2017-12-20T05:43:38.856Z,23.65
2017-12-20T05:46:06.312Z,25.77
2017-12-20T05:48:34.520Z,18.58
2017-12-20T05:51:01.993Z,18.85
2017-12-20T05:53:29.437Z,16.65
2017-12-20T05:55:56.889Z,16.60
2017-12-20T05:58:25.086Z,16.05
2017-12-20T06:00:53.309Z,15.57
2017-12-20T06:03:20.763Z,14.10
2017-12-20T06:05:48.195Z,16.92
2017-12-20T06:08:16.414Z,17.62
2017-12-20T06:10:43.874Z,16.00
2017-12-20T06:13:11.313Z,17.27
2017-12-20T06:15:38.760Z,16.17
2017-12-20T06:18:06.223Z,16.70
2017-12-20T06:20:33.678Z,14.98
2017-12-20T06:23:01.128Z,18.47
2017-12-20T06:25:28.633Z,15.75
2017-12-20T06:27:56.082Z,18.12
2017-12-20T06:30:23.532Z,21.80
2017-12-20T06:32:50.988Z,18.85
2017-12-20T06:35:18.432Z,21.20
2017-12-20T06:37:46.658Z,20.08
2017-12-20T06:40:14.106Z,15.73
2017-12-20T06:42:41.551Z,17.30
2017-12-20T06:45:08.996Z,30.17
2017-12-20T06:47:36.467Z,32.92
2017-12-20T06:50:03.901Z,29.75
2017-12-20T06:52:31.679Z,25.90
2017-12-20T06:54:59.127Z,21.20
2017-12-20T06:57:27.325Z,25.20
2017-12-20T06:59:54.766Z,22.37
2017-12-20T07:02:22.984Z,17.37
2017-12-20T07:04:50.432Z,15.10
2017-12-20T07:07:18.005Z,14.77
2017-12-20T07:09:45.594Z,18.67
2017-12-20T07:12:13.044Z,15.83
2017-12-20T07:14:40.505Z,16.87
2017-12-20T07:17:08.720Z,18.77
2017-12-20T07:19:36.197Z,17.17
2017-12-20T07:22:03.642Z,14.20
2017-12-20T07:24:31.134Z,17.17
2017-12-20T07:26:58.572Z,17.10
2017-12-20T07:29:26.020Z,17.30
2017-12-20T07:31:54.237Z,21.15
2017-12-20T07:34:21.680Z,18.85
2017-12-20T07:36:49.896Z,17.73
2017-12-20T07:39:17.350Z,17.33
2017-12-20T07:41:44.789Z,15.63
2017-12-20T07:44:12.234Z,18.00
2017-12-20T07:46:39.686Z,19.80
2017-12-20T07:49:07.482Z,16.70
2017-12-20T07:51:34.928Z,13.93
2017-12-20T07:54:02.379Z,13.77
2017-12-20T07:56:30.637Z,14.33
2017-12-20T07:58:58.081Z,10.80
2017-12-20T08:01:25.532Z,15.43
2017-12-20T08:03:52.981Z,10.60
2017-12-20T08:06:20.424Z,10.60
2017-12-20T08:08:48.641Z,11.93
2017-12-20T08:11:16.077Z,13.20
2017-12-20T08:13:44.288Z,24.20
2017-12-20T08:16:11.739Z,43.70
2017-12-20T08:18:39.957Z,24.10
2017-12-20T08:21:07.397Z,12.37
2017-12-20T08:23:34.857Z,23.57
2017-12-20T08:26:03.059Z,17.47
2017-12-20T08:28:30.495Z,12.73
2017-12-20T08:30:58.689Z,16.17
2017-12-20T08:33:26.912Z,9.93
2017-12-20T08:35:54.340Z,13.73
2017-12-20T08:38:22.541Z,12.50
2017-12-20T08:40:49.986Z,10.83
2017-12-20T08:43:17.449Z,11.35
2017-12-20T08:45:44.906Z,16.92
2017-12-20T08:48:12.358Z,15.57
2017-12-20T08:50:40.585Z,12.60
2017-12-20T08:53:08.809Z,13.62
2017-12-20T08:55:36.253Z,14.90
2017-12-20T08:58:04.460Z,12.17
2017-12-20T09:00:31.905Z,10.90
2017-12-20T09:03:00.112Z,9.07
2017-12-20T09:05:27.551Z,8.33
2017-12-20T09:07:54.989Z,7.90
2017-12-20T09:10:22.432Z,6.57
2017-12-20T09:12:49.862Z,7.73
2017-12-20T09:15:18.065Z,7.17
2017-12-20T09:17:45.496Z,7.43
2017-12-20T09:20:12.940Z,10.27
2017-12-20T09:22:40.380Z,10.20
2017-12-20T09:25:07.826Z,9.70
2017-12-20T09:27:36.024Z,9.83
2017-12-20T09:30:03.482Z,8.20
2017-12-20T09:32:31.700Z,10.57
2017-12-20T09:34:59.143Z,15.00
2017-12-20T09:37:26.595Z,9.10
2017-12-20T09:39:54.784Z,9.77
2017-12-20T09:42:23.006Z,11.47
2017-12-20T09:44:50.437Z,9.70
2017-12-20T09:47:18.641Z,9.53
2017-12-20T09:49:46.078Z,13.30
2017-12-20T09:52:13.522Z,12.70
2017-12-20T09:54:40.954Z,12.30
2017-12-20T09:57:08.392Z,13.57
2017-12-20T09:59:36.602Z,7.73
2017-12-20T10:02:04.047Z,11.30
2017-12-20T10:04:32.250Z,8.97
2017-12-20T10:06:59.698Z,9.07
2017-12-20T10:09:27.894Z,9.13
2017-12-20T10:11:56.105Z,10.27
2017-12-20T10:14:23.542Z,13.03
2017-12-20T10:16:51.749Z,8.90
2017-12-20T10:19:19.173Z,8.47
2017-12-20T10:21:46.611Z,9.73
2017-12-20T10:24:14.043Z,10.53
2017-12-20T10:26:41.518Z,11.07
2017-12-20T10:29:08.911Z,9.10
2017-12-20T10:31:36.362Z,10.83
2017-12-20T10:34:03.795Z,8.80
2017-12-20T10:36:31.240Z,8.40
2017-12-20T10:38:58.671Z,11.73
2017-12-20T10:41:26.113Z,8.20
2017-12-20T10:43:54.332Z,10.27
2017-12-20T10:46:21.768Z,10.47
2017-12-20T10:48:49.969Z,8.33
2017-12-20T10:51:17.394Z,8.30
2017-12-20T10:53:44.846Z,12.40
2017-12-20T10:56:12.286Z,49.03
2017-12-20T10:58:39.719Z,8.17
2017-12-20T11:01:07.926Z,10.90
2017-12-20T11:03:35.361Z,9.00
2017-12-20T11:06:02.793Z,6.57
2017-12-20T11:08:30.232Z,7.80
2017-12-20T11:10:57.676Z,8.50
2017-12-20T11:13:25.884Z,8.43
2017-12-20T11:15:53.314Z,7.40
2017-12-20T11:18:20.763Z,6.97
2017-12-20T11:20:48.201Z,8.57
2017-12-20T11:23:15.656Z,10.57
2017-12-20T11:25:43.083Z,8.40
2017-12-20T11:28:10.522Z,8.37
2017-12-20T11:30:37.957Z,7.80
2017-12-20T11:33:05.406Z,8.00
2017-12-20T11:35:33.602Z,8.80
2017-12-20T11:38:01.857Z,8.97
2017-12-20T11:40:29.301Z,10.00
2017-12-20T11:42:56.730Z,10.13
2017-12-20T11:45:24.174Z,9.87
2017-12-20T11:47:51.596Z,9.07
2017-12-20T11:50:19.040Z,11.20
2017-12-20T11:52:46.477Z,12.17
2017-12-20T11:55:13.919Z,8.83
2017-12-20T11:57:41.343Z,9.53
2017-12-20T12:00:08.793Z,6.90
2017-12-20T12:02:36.993Z,7.87
2017-12-20T12:05:05.183Z,7.73
2017-12-20T12:07:32.616Z,8.87
2017-12-20T12:10:00.053Z,7.47
2017-12-20T12:12:27.484Z,7.90
2017-12-20T12:14:54.938Z,11.80
2017-12-20T12:17:23.135Z,32.77
2017-12-20T12:19:50.581Z,12.37
2017-12-20T12:22:18.018Z,7.83
2017-12-20T12:24:45.469Z,10.67
2017-12-20T12:27:12.908Z,9.40
2017-12-20T12:29:41.662Z,8.37
2017-12-20T12:32:09.087Z,8.03
2017-12-20T12:34:36.529Z,7.37
2017-12-20T12:37:04.725Z,10.40
2017-12-20T12:39:32.963Z,6.77
2017-12-20T12:42:00.395Z,9.53
2017-12-20T12:44:27.825Z,8.00
2017-12-20T12:46:55.256Z,9.40
2017-12-20T12:49:22.691Z,12.50
2017-12-20T12:51:50.140Z,9.73
2017-12-20T12:54:18.342Z,13.47
2017-12-20T12:56:46.542Z,12.80
2017-12-20T12:59:13.981Z,13.33
2017-12-20T13:01:42.187Z,8.73
2017-12-20T13:04:09.623Z,10.73
2017-12-20T13:06:37.054Z,9.50
2017-12-20T13:09:04.491Z,12.23
2017-12-20T13:11:32.692Z,10.10
2017-12-20T13:14:00.130Z,10.07
2017-12-20T13:16:28.331Z,10.67
2017-12-20T13:18:55.772Z,9.40
2017-12-20T13:21:23.200Z,9.83
2017-12-20T13:23:50.648Z,16.00
2017-12-20T13:26:18.100Z,15.30
2017-12-20T13:28:46.296Z,12.20
2017-12-20T13:31:13.742Z,10.87
2017-12-20T13:33:41.935Z,9.10
2017-12-20T13:36:10.152Z,10.83
2017-12-20T13:38:37.580Z,11.53
2017-12-20T13:41:05.791Z,10.93
2017-12-20T13:43:33.229Z,7.07
2017-12-20T13:46:00.660Z,8.33
2017-12-20T13:48:28.098Z,11.30
2017-12-20T13:50:55.530Z,11.37
2017-12-20T13:53:22.982Z,8.00
2017-12-20T13:55:50.413Z,8.37
2017-12-20T13:58:17.861Z,8.37
2017-12-20T14:00:45.297Z,9.13
2017-12-20T14:03:12.790Z,10.97
2017-12-20T14:05:40.981Z,9.20
2017-12-20T14:08:09.195Z,9.87
2017-12-20T14:10:36.632Z,7.23
2017-12-20T14:13:04.847Z,8.20
2017-12-20T14:15:32.290Z,8.57
2017-12-20T14:18:00.489Z,8.20
2017-12-20T14:20:27.924Z,8.13
2017-12-20T14:22:55.362Z,8.93
2017-12-20T14:25:22.803Z,8.30
2017-12-20T14:27:50.249Z,8.90
2017-12-20T14:30:17.684Z,10.10
2017-12-20T14:32:45.143Z,10.37
2017-12-20T14:35:12.582Z,14.40
2017-12-20T14:37:40.049Z,17.80
2017-12-20T14:40:07.483Z,11.87
2017-12-20T14:42:35.685Z,9.93
2017-12-20T14:45:03.115Z,9.20
2017-12-20T14:47:30.556Z,7.60
2017-12-20T14:49:57.988Z,8.70
2017-12-20T14:52:25.428Z,8.90
2017-12-20T14:54:53.634Z,6.93
2017-12-20T14:57:21.065Z,7.47
2017-12-20T14:59:48.517Z,8.23
2017-12-20T15:02:15.963Z,16.20
2017-12-20T15:04:43.412Z,24.67
2017-12-20T15:07:10.848Z,13.97
2017-12-20T15:09:38.303Z,6.23
2017-12-20T15:12:05.744Z,11.43
2017-12-20T15:14:33.183Z,10.30
2017-12-20T15:17:00.620Z,10.60
2017-12-20T15:19:28.067Z,8.37
2017-12-20T15:21:55.506Z,8.90
2017-12-20T15:24:22.952Z,12.70
2017-12-20T15:26:50.395Z,10.43
2017-12-20T15:29:17.836Z,13.30
2017-12-20T15:31:45.268Z,20.37
2017-12-20T15:34:12.725Z,19.73
2017-12-20T15:36:40.158Z,12.30
2017-12-20T15:39:07.617Z,8.07
2017-12-20T15:41:35.051Z,9.17
2017-12-20T15:44:02.495Z,9.03
2017-12-20T15:46:30.698Z,9.47
2017-12-20T15:48:58.133Z,15.53
2017-12-20T15:51:26.347Z,32.87
2017-12-20T15:53:53.788Z,18.97
2017-12-20T15:56:22.002Z,8.90
2017-12-20T15:58:49.435Z,9.30
2017-12-20T16:01:16.870Z,9.43
2017-12-20T16:03:44.312Z,8.70
2017-12-20T16:06:12.529Z,9.03
2017-12-20T16:08:39.956Z,8.20
2017-12-20T16:11:07.404Z,8.90
2017-12-20T16:13:35.601Z,9.80
2017-12-20T16:16:03.813Z,10.77
2017-12-20T16:18:31.246Z,10.90
2017-12-20T16:20:59.447Z,9.83
2017-12-20T16:23:26.879Z,9.60
2017-12-20T16:25:54.331Z,10.40
2017-12-20T16:28:21.769Z,7.87
2017-12-20T16:30:49.216Z,13.60
2017-12-20T16:33:17.426Z,7.40
2017-12-20T16:35:44.877Z,8.83
2017-12-20T16:38:12.311Z,14.50
2017-12-20T16:40:39.763Z,15.33
2017-12-20T16:43:07.205Z,15.67
2017-12-20T16:45:34.644Z,10.63
2017-12-20T16:48:02.845Z,11.07
2017-12-20T16:50:30.291Z,11.20
2017-12-20T16:52:58.504Z,12.17
2017-12-20T16:55:25.978Z,10.17
2017-12-20T16:57:53.404Z,7.97
2017-12-20T17:00:21.609Z,10.20
2017-12-20T17:02:49.804Z,9.67
2017-12-20T17:05:17.240Z,12.20
2017-12-20T17:07:44.677Z,12.90
2017-12-20T17:10:12.115Z,14.33
2017-12-20T17:12:39.589Z,12.70
2017-12-20T17:15:07.059Z,10.07
2017-12-20T17:17:34.485Z,13.30
2017-12-20T17:20:02.681Z,13.40
2017-12-20T17:22:30.888Z,13.20
2017-12-20T17:24:58.314Z,10.13
2017-12-20T17:27:25.765Z,12.10
2017-12-20T17:29:53.201Z,10.50
2017-12-20T17:32:20.656Z,11.37
2017-12-20T17:34:48.083Z,14.00
2017-12-20T17:37:15.571Z,10.57
2017-12-20T17:39:42.992Z,13.20
2017-12-20T17:42:10.431Z,15.63
2017-12-20T17:44:37.906Z,18.93
2017-12-20T17:47:05.335Z,29.40
2017-12-20T17:49:32.767Z,19.97
2017-12-20T17:52:00.261Z,18.30
2017-12-20T17:54:27.685Z,19.00
2017-12-20T17:56:55.116Z,17.90
2017-12-20T17:59:23.327Z,16.70
2017-12-20T18:01:50.755Z,17.90
2017-12-20T18:04:18.190Z,18.00
2017-12-20T18:06:45.661Z,16.83
2017-12-20T18:09:13.102Z,18.33
2017-12-20T18:11:40.535Z,17.20
2017-12-20T18:14:08.036Z,16.83
2017-12-20T18:16:36.226Z,16.17
2017-12-20T18:19:03.683Z,17.10
2017-12-20T18:21:31.933Z,23.37
2017-12-20T18:23:59.361Z,22.80
2017-12-20T18:26:26.801Z,20.03
2017-12-20T18:28:55.021Z,20.90
2017-12-20T18:31:22.516Z,19.83
2017-12-20T18:33:49.948Z,20.93
2017-12-20T18:36:17.460Z,18.50
2017-12-20T18:38:44.948Z,18.93
2017-12-20T18:41:12.377Z,20.23
2017-12-20T18:43:39.820Z,25.40
2017-12-20T18:46:07.311Z,21.53
2017-12-20T18:48:34.743Z,18.63
2017-12-20T18:51:02.185Z,22.77
2017-12-20T18:53:29.621Z,19.40
2017-12-20T18:55:57.070Z,18.73
2017-12-20T18:58:24.562Z,24.63
2017-12-20T19:00:52.001Z,20.70
2017-12-20T19:03:19.444Z,22.37
2017-12-20T19:05:47.702Z,22.30
2017-12-20T19:08:15.951Z,25.83
2017-12-20T19:10:43.440Z,29.63
2017-12-20T19:13:10.875Z,27.07
2017-12-20T19:15:38.376Z,25.37
2017-12-20T19:18:05.807Z,38.30
2017-12-20T19:20:33.288Z,27.07
2017-12-20T19:23:00.713Z,24.33
2017-12-20T19:25:28.211Z,22.80
2017-12-20T19:27:56.460Z,23.63
2017-12-20T19:30:23.904Z,25.40
2017-12-20T19:32:51.382Z,24.40
2017-12-20T19:35:18.817Z,25.70
2017-12-20T19:37:46.297Z,31.57
2017-12-20T19:40:13.736Z,28.60
2017-12-20T19:42:41.993Z,29.73
2017-12-20T19:45:09.430Z,28.43
2017-12-20T19:47:36.923Z,23.50
2017-12-20T19:50:04.365Z,29.37
2017-12-20T19:52:31.860Z,23.40
2017-12-20T19:54:59.289Z,25.90
2017-12-20T19:57:26.795Z,20.77
2017-12-20T19:59:54.275Z,21.60
2017-12-20T20:02:22.518Z,31.20
2017-12-20T20:04:49.996Z,30.37
2017-12-20T20:07:17.491Z,24.90
2017-12-20T20:09:44.974Z,20.47
2017-12-20T20:12:12.466Z,22.03
2017-12-20T20:14:40.720Z,26.00
2017-12-20T20:17:08.192Z,27.03
2017-12-20T20:19:35.667Z,24.17
2017-12-20T20:22:03.162Z,22.47
2017-12-20T20:24:31.414Z,30.33
2017-12-20T20:26:58.908Z,27.73
2017-12-20T20:29:26.376Z,22.87
2017-12-20T20:31:53.872Z,30.90
2017-12-20T20:34:22.060Z,27.33
2017-12-20T20:36:49.565Z,26.53
2017-12-20T20:39:17.044Z,30.63
2017-12-20T20:41:44.536Z,29.50
2017-12-20T20:44:12.015Z,30.27
2017-12-20T20:46:39.490Z,28.63
2017-12-20T20:49:07.742Z,28.53
2017-12-20T20:51:35.231Z,27.53
2017-12-20T20:54:02.727Z,28.93
2017-12-20T20:56:30.976Z,23.47
2017-12-20T20:58:58.473Z,27.50
2017-12-20T21:01:26.724Z,32.13
2017-12-20T21:03:54.214Z,31.30
2017-12-20T21:06:21.703Z,37.67
2017-12-20T21:08:49.206Z,31.03
2017-12-20T21:11:16.684Z,32.00
2017-12-20T21:13:44.168Z,34.63
2017-12-20T21:16:11.657Z,41.80
2017-12-20T21:18:39.152Z,45.50
2017-12-20T21:21:07.397Z,47.47
2017-12-20T21:23:34.913Z,40.83
2017-12-20T21:26:03.150Z,52.57
2017-12-20T21:28:31.399Z,46.33
2017-12-20T21:30:58.879Z,43.87
2017-12-20T21:33:26.374Z,32.43
2017-12-20T21:35:53.869Z,33.23
2017-12-20T21:38:21.360Z,33.17
2017-12-20T21:40:49.552Z,22.63
2017-12-20T21:43:17.060Z,27.30
2017-12-20T21:45:44.490Z,30.77
2017-12-20T21:48:12.028Z,26.27
2017-12-20T21:50:39.509Z,27.67
2017-12-20T21:53:06.970Z,22.97
2017-12-20T21:55:34.465Z,26.47
2017-12-20T21:58:02.707Z,29.70
2017-12-20T22:00:30.149Z,27.77
2017-12-20T22:02:57.645Z,26.70
2017-12-20T22:05:25.132Z,22.47
2017-12-20T22:07:52.605Z,27.43
2017-12-20T22:10:20.097Z,29.70
2017-12-20T22:12:48.332Z,29.07
2017-12-20T22:15:15.816Z,27.50
2017-12-20T22:17:43.240Z,26.37
2017-12-20T22:20:10.695Z,27.83
2017-12-20T22:22:38.183Z,25.50
2017-12-20T22:25:05.660Z,28.57
2017-12-20T22:27:33.077Z,39.40
2017-12-20T22:30:01.349Z,31.73
2017-12-20T22:32:28.823Z,39.70
2017-12-20T22:34:56.305Z,31.70
2017-12-20T22:37:24.553Z,30.27
2017-12-20T22:39:52.800Z,28.40
2017-12-20T22:42:21.035Z,21.97
2017-12-20T22:44:48.532Z,30.90
2017-12-20T22:47:16.015Z,26.03
2017-12-20T22:49:44.303Z,27.57
2017-12-20T22:52:11.701Z,27.40
2017-12-20T22:54:39.194Z,26.13
2017-12-20T22:57:06.671Z,26.30
2017-12-20T22:59:34.160Z,28.27
2017-12-20T23:02:01.639Z,32.53
2017-12-20T23:04:29.881Z,32.97
2017-12-20T23:06:57.369Z,24.17
2017-12-20T23:09:24.832Z,29.50
2017-12-20T23:11:52.309Z,28.90
2017-12-20T23:14:19.781Z,25.57
2017-12-20T23:16:47.254Z,32.23
2017-12-20T23:19:14.726Z,34.03
2017-12-20T23:21:42.162Z,27.57
2017-12-20T23:24:09.599Z,36.87
2017-12-20T23:26:37.094Z,33.53
2017-12-20T23:29:04.520Z,40.80
2017-12-20T23:31:32.775Z,48.77
2017-12-20T23:34:00.201Z,48.30
2017-12-20T23:36:27.684Z,32.77
2017-12-20T23:38:55.163Z,37.20
2017-12-20T23:41:22.614Z,28.67
2017-12-20T23:43:50.058Z,29.37
2017-12-20T23:46:17.549Z,32.43
2017-12-20T23:48:44.988Z,34.93
2017-12-20T23:51:12.436Z,34.87
2017-12-20T23:53:39.886Z,27.70
2017-12-20T23:56:07.331Z,30.00
2017-12-20T23:58:34.775Z,25.40
